Time;durP1;ratioP1;P1;durP2;ratioP2;P2;SDS_P1;SDS_P2;PMS_P1;PMS_P2;Temp;Humidity;BMP_temperature;BMP_pressure;BME280_temperature;BME280_humidity;BME280_pressure;Samples;Min_cycle;Max_cycle;Signal;HPM_P1;HPM_P2
2023/12/09 00:01:49;;;;;;;3.38;2.40;;;;;;;;;;5048586;28;20111;-63
2023/12/09 00:04:17;;;;;;;3.97;3.00;;;;;;;;;;5047229;28;20772;-62
2023/12/09 00:06:50;;;;;;;3.58;2.95;;;;;;;;;;5040784;28;20130;-65
2023/12/09 00:09:19;;;;;;;3.58;2.90;;;;;;;;;;5047293;28;20072;-66
2023/12/09 00:11:47;;;;;;;5.03;3.03;;;;;;;;;;5044434;28;20052;-64
2023/12/09 00:14:16;;;;;;;3.20;2.88;;;;;;;;;;5044917;28;20049;-64
2023/12/09 00:16:45;;;;;;;4.85;3.90;;;;;;;;;;5035601;28;20052;-62
2023/12/09 00:19:15;;;;;;;3.17;2.80;;;;;;;;;;5043602;28;20052;-62
2023/12/09 00:21:43;;;;;;;4.28;3.45;;;;;;;;;;5039778;28;20072;-63
2023/12/09 00:24:12;;;;;;;5.78;2.90;;;;;;;;;;5036897;28;20431;-66
2023/12/09 00:26:41;;;;;;;3.70;3.10;;;;;;;;;;5042543;28;20271;-62
2023/12/09 00:29:09;;;;;;;3.78;2.75;;;;;;;;;;5040967;28;20498;-62
2023/12/09 00:31:37;;;;;;;3.75;3.10;;;;;;;;;;5047222;28;20057;-63
2023/12/09 00:34:06;;;;;;;3.15;2.67;;;;;;;;;;5045759;28;20049;-62
2023/12/09 00:36:36;;;;;;;3.83;2.97;;;;;;;;;;5045586;28;20057;-64
2023/12/09 00:39:05;;;;;;;4.10;3.00;;;;;;;;;;5043070;28;20506;-68
2023/12/09 00:41:33;;;;;;;3.95;3.00;;;;;;;;;;5045078;28;20091;-62
2023/12/09 00:44:02;;;;;;;4.63;2.78;;;;;;;;;;5046439;28;20472;-62
2023/12/09 00:46:30;;;;;;;3.95;3.17;;;;;;;;;;5048044;28;20042;-64
2023/12/09 00:48:59;;;;;;;4.03;3.28;;;;;;;;;;5043741;28;20090;-64
2023/12/09 00:51:27;;;;;;;4.15;3.22;;;;;;;;;;5038900;28;20052;-63
2023/12/09 00:53:57;;;;;;;6.53;4.25;;;;;;;;;;5042658;28;20054;-64
2023/12/09 00:56:25;;;;;;;4.38;3.22;;;;;;;;;;5028761;28;20080;-63
2023/12/09 00:59:02;;;;;;;3.88;2.75;;;;;;;;;;5043019;28;20119;-63
2023/12/09 01:01:33;;;;;;;4.10;3.20;;;;;;;;;;5038107;28;20056;-63
2023/12/09 01:04:02;;;;;;;4.65;3.67;;;;;;;;;;5041064;28;20099;-64
2023/12/09 01:06:30;;;;;;;4.43;3.20;;;;;;;;;;5042501;28;20047;-64
2023/12/09 01:09:01;;;;;;;5.28;3.13;;;;;;;;;;5045442;28;20136;-62
2023/12/09 01:11:29;;;;;;;6.25;3.53;;;;;;;;;;5045188;28;20063;-63
2023/12/09 01:13:57;;;;;;;3.65;3.08;;;;;;;;;;5047585;28;20102;-64
2023/12/09 01:16:26;;;;;;;4.95;3.45;;;;;;;;;;5033232;28;20049;-65
2023/12/09 01:18:54;;;;;;;4.53;3.30;;;;;;;;;;5044618;28;20134;-63
2023/12/09 01:21:23;;;;;;;3.72;2.88;;;;;;;;;;5045230;28;20045;-63
2023/12/09 01:23:51;;;;;;;4.82;3.58;;;;;;;;;;5045766;28;20131;-65
2023/12/09 01:26:21;;;;;;;8.05;3.70;;;;;;;;;;5049906;28;20041;-69
2023/12/09 01:28:49;;;;;;;6.00;3.92;;;;;;;;;;5039577;28;20155;-64
2023/12/09 01:31:18;;;;;;;6.38;3.70;;;;;;;;;;5042318;28;20049;-64
2023/12/09 01:33:46;;;;;;;4.90;3.15;;;;;;;;;;5048963;28;20052;-63
2023/12/09 01:36:15;;;;;;;5.13;3.88;;;;;;;;;;5042663;28;20045;-64
2023/12/09 01:38:43;;;;;;;6.72;4.00;;;;;;;;;;5046690;28;20060;-64
2023/12/09 01:41:11;;;;;;;4.93;3.45;;;;;;;;;;5048415;28;20049;-66
2023/12/09 01:43:42;;;;;;;5.88;4.15;;;;;;;;;;5049616;28;20045;-65
2023/12/09 01:46:11;;;;;;;4.75;3.78;;;;;;;;;;5047086;28;20452;-64
2023/12/09 01:48:39;;;;;;;5.63;3.90;;;;;;;;;;5048189;28;20068;-66
2023/12/09 01:51:09;;;;;;;4.57;3.95;;;;;;;;;;5043647;28;20053;-64
2023/12/09 01:53:37;;;;;;;6.70;3.92;;;;;;;;;;5047580;28;20068;-65
2023/12/09 01:56:07;;;;;;;5.93;4.13;;;;;;;;;;5043973;28;20093;-63
2023/12/09 01:58:36;;;;;;;5.82;3.72;;;;;;;;;;5049307;28;20114;-63
2023/12/09 02:01:06;;;;;;;7.80;4.35;;;;;;;;;;5047589;28;20142;-63
2023/12/09 02:03:35;;;;;;;7.13;4.60;;;;;;;;;;5050002;28;20395;-66
2023/12/09 02:06:04;;;;;;;5.68;4.28;;;;;;;;;;5050452;28;20478;-63
2023/12/09 02:08:33;;;;;;;5.78;3.75;;;;;;;;;;5039658;28;20038;-63
2023/12/09 02:11:07;;;;;;;6.30;4.22;;;;;;;;;;5035561;28;20053;-63
2023/12/09 02:13:41;;;;;;;6.40;4.57;;;;;;;;;;5049755;28;20044;-63
2023/12/09 02:16:12;;;;;;;5.80;4.00;;;;;;;;;;5046510;28;20465;-67
2023/12/09 02:18:41;;;;;;;6.95;4.20;;;;;;;;;;5035096;28;20057;-64
2023/12/09 02:21:09;;;;;;;7.07;4.45;;;;;;;;;;5049216;28;20049;-62
2023/12/09 02:23:39;;;;;;;6.30;4.35;;;;;;;;;;5047742;28;20041;-65
2023/12/09 02:26:12;;;;;;;6.88;4.10;;;;;;;;;;5045909;28;20037;-64
2023/12/09 02:28:42;;;;;;;8.05;4.93;;;;;;;;;;5046674;28;20541;-65
2023/12/09 02:31:13;;;;;;;6.15;4.43;;;;;;;;;;5044745;28;20449;-63
2023/12/09 02:33:43;;;;;;;6.22;4.45;;;;;;;;;;5042044;28;20091;-63
2023/12/09 02:36:13;;;;;;;6.30;4.15;;;;;;;;;;5044519;28;20049;-65
2023/12/09 02:38:44;;;;;;;6.22;4.13;;;;;;;;;;5037048;28;20045;-66
2023/12/09 02:41:13;;;;;;;6.80;4.60;;;;;;;;;;5042553;28;20065;-64
2023/12/09 02:43:41;;;;;;;7.47;4.85;;;;;;;;;;5042760;28;20396;-63
2023/12/09 02:46:13;;;;;;;8.13;4.85;;;;;;;;;;5038695;28;20037;-64
2023/12/09 02:48:41;;;;;;;7.90;4.50;;;;;;;;;;5042474;28;20053;-63
2023/12/09 02:51:10;;;;;;;6.38;4.15;;;;;;;;;;5047939;28;20064;-64
2023/12/09 02:53:38;;;;;;;6.00;3.70;;;;;;;;;;5040257;28;20048;-64
2023/12/09 02:56:08;;;;;;;5.53;4.18;;;;;;;;;;5044428;28;20052;-64
2023/12/09 02:58:37;;;;;;;6.28;4.35;;;;;;;;;;5043491;28;20114;-66
2023/12/09 03:01:06;;;;;;;7.50;4.28;;;;;;;;;;5036235;28;20109;-62
2023/12/09 03:03:34;;;;;;;6.88;4.05;;;;;;;;;;5045539;28;20056;-64
2023/12/09 03:06:02;;;;;;;5.97;3.97;;;;;;;;;;5042578;28;20512;-64
2023/12/09 03:08:31;;;;;;;6.38;4.10;;;;;;;;;;5043347;28;20126;-63
2023/12/09 03:10:59;;;;;;;6.50;3.63;;;;;;;;;;5040963;28;20555;-63
2023/12/09 03:13:29;;;;;;;6.50;4.03;;;;;;;;;;5049317;28;20452;-64
2023/12/09 03:15:57;;;;;;;4.72;3.35;;;;;;;;;;5049251;28;20106;-65
2023/12/09 03:18:26;;;;;;;5.95;4.03;;;;;;;;;;5041051;28;20517;-63
2023/12/09 03:20:54;;;;;;;5.50;3.58;;;;;;;;;;5045729;28;20520;-64
2023/12/09 03:23:23;;;;;;;6.18;3.85;;;;;;;;;;5045654;28;20123;-63
2023/12/09 03:25:51;;;;;;;6.22;3.72;;;;;;;;;;5038314;28;20053;-63
2023/12/09 03:28:19;;;;;;;6.13;3.85;;;;;;;;;;5043985;28;20452;-64
2023/12/09 03:30:49;;;;;;;6.28;3.75;;;;;;;;;;5040211;28;20138;-64
2023/12/09 03:33:17;;;;;;;5.10;3.65;;;;;;;;;;5042883;28;20081;-68
2023/12/09 03:35:46;;;;;;;5.78;4.05;;;;;;;;;;5044476;28;20048;-63
2023/12/09 03:38:14;;;;;;;5.28;4.10;;;;;;;;;;5043114;28;20053;-62
2023/12/09 03:40:43;;;;;;;6.03;3.80;;;;;;;;;;5048107;28;20186;-65
2023/12/09 03:43:11;;;;;;;6.90;4.13;;;;;;;;;;5042204;28;20095;-65
2023/12/09 03:45:40;;;;;;;5.72;3.95;;;;;;;;;;5039374;28;20490;-65
2023/12/09 03:48:10;;;;;;;7.57;3.75;;;;;;;;;;5043282;28;20509;-65
2023/12/09 03:50:38;;;;;;;8.02;4.13;;;;;;;;;;5041240;28;20133;-65
2023/12/09 03:53:07;;;;;;;5.10;3.42;;;;;;;;;;5041290;28;20099;-64
2023/12/09 03:55:35;;;;;;;6.38;3.80;;;;;;;;;;5046340;28;20092;-64
2023/12/09 03:58:05;;;;;;;6.63;3.78;;;;;;;;;;5046739;28;20040;-70
2023/12/09 04:00:34;;;;;;;6.75;3.70;;;;;;;;;;5032312;28;20110;-63
2023/12/09 04:03:03;;;;;;;6.55;3.85;;;;;;;;;;5047998;28;20044;-64
2023/12/09 04:05:33;;;;;;;7.55;4.05;;;;;;;;;;5046669;28;20072;-64
2023/12/09 04:08:02;;;;;;;5.13;3.38;;;;;;;;;;5041881;28;20037;-64
2023/12/09 04:10:30;;;;;;;8.43;3.80;;;;;;;;;;5036597;28;20049;-64
2023/12/09 04:12:58;;;;;;;6.45;3.95;;;;;;;;;;5044412;28;20076;-63
2023/12/09 04:15:28;;;;;;;7.00;4.05;;;;;;;;;;5044837;28;20049;-63
2023/12/09 04:17:56;;;;;;;7.88;4.18;;;;;;;;;;5038667;28;20080;-63
2023/12/09 04:20:25;;;;;;;5.78;3.35;;;;;;;;;;5043532;28;20044;-64
2023/12/09 04:22:54;;;;;;;7.05;3.75;;;;;;;;;;5030801;28;20081;-68
2023/12/09 04:25:24;;;;;;;8.98;4.47;;;;;;;;;;5048135;28;20037;-63
2023/12/09 04:27:53;;;;;;;4.97;3.63;;;;;;;;;;5042649;28;20585;-64
2023/12/09 04:30:21;;;;;;;8.85;4.90;;;;;;;;;;5041599;28;20067;-65
2023/12/09 04:32:50;;;;;;;6.40;3.90;;;;;;;;;;5044164;28;20045;-62
2023/12/09 04:35:18;;;;;;;6.97;3.72;;;;;;;;;;5039512;28;20073;-64
2023/12/09 04:37:47;;;;;;;6.90;3.90;;;;;;;;;;5042247;28;20049;-62
2023/12/09 04:40:17;;;;;;;7.13;3.90;;;;;;;;;;5040934;28;20049;-62
2023/12/09 04:42:46;;;;;;;7.47;3.65;;;;;;;;;;5043242;28;20043;-63
2023/12/09 04:45:14;;;;;;;6.22;3.78;;;;;;;;;;5048116;28;20057;-64
2023/12/09 04:47:43;;;;;;;11.32;4.40;;;;;;;;;;5044825;28;20475;-64
2023/12/09 04:50:11;;;;;;;12.65;3.97;;;;;;;;;;5043424;28;20045;-62
2023/12/09 04:52:40;;;;;;;5.40;3.38;;;;;;;;;;5037118;28;20049;-66
2023/12/09 04:55:09;;;;;;;5.05;3.63;;;;;;;;;;5045025;28;20056;-62
2023/12/09 04:57:39;;;;;;;6.03;3.55;;;;;;;;;;5039914;28;20102;-63
2023/12/09 05:00:10;;;;;;;5.65;3.42;;;;;;;;;;5049051;28;20044;-65
2023/12/09 05:02:40;;;;;;;6.38;3.40;;;;;;;;;;5037420;28;20041;-63
2023/12/09 05:05:09;;;;;;;7.70;3.78;;;;;;;;;;5045538;28;20045;-62
2023/12/09 05:07:37;;;;;;;4.65;3.20;;;;;;;;;;5042916;28;20041;-65
2023/12/09 05:10:06;;;;;;;5.50;3.55;;;;;;;;;;5047664;28;20068;-65
2023/12/09 05:12:34;;;;;;;5.43;3.17;;;;;;;;;;5049866;28;20065;-63
2023/12/09 05:15:04;;;;;;;7.22;3.15;;;;;;;;;;5051921;28;20136;-64
2023/12/09 05:17:33;;;;;;;6.25;3.28;;;;;;;;;;5043551;28;20049;-63
2023/12/09 05:20:01;;;;;;;4.95;3.50;;;;;;;;;;5044004;28;20049;-62
2023/12/09 05:22:30;;;;;;;3.53;2.60;;;;;;;;;;5044855;28;20045;-64
2023/12/09 05:24:58;;;;;;;4.43;2.75;;;;;;;;;;5042649;28;20053;-62
2023/12/09 05:27:27;;;;;;;3.95;2.70;;;;;;;;;;5040020;28;20102;-62
2023/12/09 05:29:55;;;;;;;4.78;3.22;;;;;;;;;;5049366;28;20067;-63
2023/12/09 05:32:25;;;;;;;5.55;3.63;;;;;;;;;;5050957;28;20049;-62
2023/12/09 05:34:54;;;;;;;6.72;3.63;;;;;;;;;;5038058;28;20064;-63
2023/12/09 05:37:22;;;;;;;5.03;3.05;;;;;;;;;;5040721;28;20127;-63
2023/12/09 05:39:51;;;;;;;6.43;3.50;;;;;;;;;;5039938;28;20053;-62
2023/12/09 05:42:19;;;;;;;6.50;3.05;;;;;;;;;;5043500;28;20160;-62
2023/12/09 05:44:47;;;;;;;7.63;2.83;;;;;;;;;;5051372;28;20052;-63
2023/12/09 05:47:16;;;;;;;6.93;2.53;;;;;;;;;;5045643;28;20587;-63
2023/12/09 05:49:45;;;;;;;5.57;3.35;;;;;;;;;;5040481;28;20510;-63
2023/12/09 05:52:14;;;;;;;5.50;3.25;;;;;;;;;;5044987;28;20049;-62
2023/12/09 05:54:42;;;;;;;4.22;2.80;;;;;;;;;;5046783;28;20049;-65
2023/12/09 05:57:11;;;;;;;4.10;2.75;;;;;;;;;;5047952;28;20049;-63
2023/12/09 05:59:39;;;;;;;4.32;2.80;;;;;;;;;;5043292;28;20143;-63
2023/12/09 06:02:07;;;;;;;4.07;2.65;;;;;;;;;;5044746;28;20215;-63
2023/12/09 06:04:37;;;;;;;4.00;2.55;;;;;;;;;;5041039;28;20046;-64
2023/12/09 06:07:07;;;;;;;4.18;2.88;;;;;;;;;;5044814;28;20045;-66
2023/12/09 06:09:35;;;;;;;5.07;3.00;;;;;;;;;;5042016;28;20045;-64
2023/12/09 06:12:04;;;;;;;3.42;2.47;;;;;;;;;;5043410;28;20508;-63
2023/12/09 06:14:32;;;;;;;3.72;2.70;;;;;;;;;;5048894;28;20047;-66
2023/12/09 06:17:00;;;;;;;3.53;2.50;;;;;;;;;;5044148;28;20049;-64
2023/12/09 06:19:29;;;;;;;4.15;2.50;;;;;;;;;;5043253;28;20072;-62
2023/12/09 06:21:57;;;;;;;5.53;2.65;;;;;;;;;;5050177;28;20056;-62
2023/12/09 06:24:27;;;;;;;3.65;2.47;;;;;;;;;;5044090;28;20049;-68
2023/12/09 06:26:55;;;;;;;2.83;2.47;;;;;;;;;;5049097;28;20172;-63
2023/12/09 06:29:24;;;;;;;7.72;3.00;;;;;;;;;;5048601;28;20111;-63
2023/12/09 06:31:52;;;;;;;5.45;3.15;;;;;;;;;;5040682;28;20041;-63
2023/12/09 06:34:20;;;;;;;3.97;2.97;;;;;;;;;;5041218;28;20045;-62
2023/12/09 06:36:49;;;;;;;7.18;2.90;;;;;;;;;;5042855;28;20052;-64
2023/12/09 06:39:17;;;;;;;6.50;2.72;;;;;;;;;;5041653;28;20038;-65
2023/12/09 06:41:48;;;;;;;3.95;2.45;;;;;;;;;;5048389;28;20045;-63
2023/12/09 06:44:16;;;;;;;4.85;2.58;;;;;;;;;;5045273;28;20115;-63
2023/12/09 06:46:45;;;;;;;5.40;2.38;;;;;;;;;;5044481;28;20115;-63
2023/12/09 06:49:13;;;;;;;2.80;2.28;;;;;;;;;;5047147;28;20080;-64
2023/12/09 06:51:43;;;;;;;4.93;2.50;;;;;;;;;;5046086;28;20422;-66
2023/12/09 06:54:12;;;;;;;3.67;2.45;;;;;;;;;;5048799;28;20037;-65
2023/12/09 06:56:40;;;;;;;4.78;2.40;;;;;;;;;;5050549;28;20486;-65
2023/12/09 06:59:10;;;;;;;4.88;2.33;;;;;;;;;;5047374;28;20041;-62
2023/12/09 07:01:38;;;;;;;4.85;2.80;;;;;;;;;;5042607;28;20466;-65
2023/12/09 07:04:09;;;;;;;6.13;2.67;;;;;;;;;;5048974;28;20048;-66
2023/12/09 07:06:37;;;;;;;4.50;2.88;;;;;;;;;;5046366;28;20389;-64
2023/12/09 07:09:08;;;;;;;4.50;2.70;;;;;;;;;;5041827;28;20444;-64
2023/12/09 07:11:36;;;;;;;8.18;2.60;;;;;;;;;;5048554;28;20130;-64
2023/12/09 07:14:05;;;;;;;4.15;2.30;;;;;;;;;;5049434;28;20048;-65
2023/12/09 07:16:35;;;;;;;5.28;2.72;;;;;;;;;;5047626;28;20056;-66
2023/12/09 07:19:03;;;;;;;6.38;2.50;;;;;;;;;;5046409;28;20045;-63
2023/12/09 07:21:32;;;;;;;4.07;2.38;;;;;;;;;;5047363;28;20151;-63
2023/12/09 07:24:00;;;;;;;6.35;3.13;;;;;;;;;;5046056;28;20060;-62
2023/12/09 07:26:29;;;;;;;3.80;2.63;;;;;;;;;;5043190;28;20045;-63
2023/12/09 07:28:57;;;;;;;6.57;3.00;;;;;;;;;;5041569;28;20745;-63
2023/12/09 07:31:26;;;;;;;5.55;2.75;;;;;;;;;;5045193;28;20095;-64
2023/12/09 07:33:55;;;;;;;4.15;2.80;;;;;;;;;;5046892;28;20117;-63
2023/12/09 07:36:24;;;;;;;5.90;3.20;;;;;;;;;;5045157;28;20067;-66
2023/12/09 07:38:52;;;;;;;3.42;2.47;;;;;;;;;;5047124;28;20080;-64
2023/12/09 07:41:21;;;;;;;4.68;2.35;;;;;;;;;;5045805;28;20040;-63
2023/12/09 07:43:49;;;;;;;3.58;2.60;;;;;;;;;;5044612;28;20136;-64
2023/12/09 07:46:17;;;;;;;4.95;2.50;;;;;;;;;;5042330;28;20086;-64
2023/12/09 07:48:46;;;;;;;7.05;2.40;;;;;;;;;;5039128;28;20119;-63
2023/12/09 07:51:16;;;;;;;3.80;2.10;;;;;;;;;;5043486;28;20061;-68
2023/12/09 07:53:44;;;;;;;3.90;2.45;;;;;;;;;;5040783;28;20129;-64
2023/12/09 07:56:13;;;;;;;3.13;2.40;;;;;;;;;;5048704;28;20053;-64
2023/12/09 07:58:41;;;;;;;3.83;1.98;;;;;;;;;;5046559;28;20115;-64
2023/12/09 08:01:09;;;;;;;3.20;2.17;;;;;;;;;;5049526;28;20560;-63
2023/12/09 08:03:39;;;;;;;4.75;2.45;;;;;;;;;;5037865;28;20053;-64
2023/12/09 08:06:09;;;;;;;2.75;2.17;;;;;;;;;;5047395;28;20132;-64
2023/12/09 08:08:39;;;;;;;3.17;2.00;;;;;;;;;;5037707;28;20068;-69
2023/12/09 08:11:07;;;;;;;2.97;2.47;;;;;;;;;;5040604;28;20471;-63
2023/12/09 08:13:36;;;;;;;3.95;1.90;;;;;;;;;;5037929;28;20080;-64
2023/12/09 08:16:05;;;;;;;2.30;1.90;;;;;;;;;;5042789;28;20487;-64
2023/12/09 08:18:33;;;;;;;2.95;1.80;;;;;;;;;;5035296;28;20553;-66
2023/12/09 08:21:03;;;;;;;3.38;2.17;;;;;;;;;;5048289;28;20052;-67
2023/12/09 08:23:31;;;;;;;2.67;1.95;;;;;;;;;;5041852;28;20045;-63
2023/12/09 08:26:01;;;;;;;4.15;2.90;;;;;;;;;;5045266;28;20111;-63
2023/12/09 08:28:29;;;;;;;2.60;2.15;;;;;;;;;;5046441;28;20069;-66
2023/12/09 08:30:57;;;;;;;4.85;2.65;;;;;;;;;;5043272;28;20529;-64
2023/12/09 08:33:26;;;;;;;4.55;3.28;;;;;;;;;;5034980;28;20053;-64
2023/12/09 08:35:55;;;;;;;4.75;2.78;;;;;;;;;;5044745;28;20049;-63
2023/12/09 08:38:23;;;;;;;3.22;2.53;;;;;;;;;;5051421;28;20057;-63
2023/12/09 08:40:51;;;;;;;4.53;2.75;;;;;;;;;;5052910;28;20080;-65
2023/12/09 08:43:21;;;;;;;4.82;2.88;;;;;;;;;;5051034;28;20060;-65
2023/12/09 08:45:49;;;;;;;4.60;2.83;;;;;;;;;;5051006;28;20115;-64
2023/12/09 08:48:18;;;;;;;7.82;3.00;;;;;;;;;;5050586;28;20251;-63
2023/12/09 08:50:47;;;;;;;5.63;2.55;;;;;;;;;;5045094;28;20048;-63
2023/12/09 08:53:16;;;;;;;6.40;3.22;;;;;;;;;;5051193;28;20098;-66
2023/12/09 08:55:45;;;;;;;3.88;2.70;;;;;;;;;;5045416;28;20048;-66
2023/12/09 08:58:13;;;;;;;6.75;2.60;;;;;;;;;;5051839;28;20510;-65
2023/12/09 09:00:43;;;;;;;7.22;2.50;;;;;;;;;;5048366;28;20052;-65
2023/12/09 09:03:13;;;;;;;5.28;2.85;;;;;;;;;;5044898;28;20498;-63
2023/12/09 09:05:42;;;;;;;6.72;2.45;;;;;;;;;;5045334;28;20042;-65
2023/12/09 09:08:10;;;;;;;4.40;2.85;;;;;;;;;;5046896;28;20118;-66
2023/12/09 09:10:39;;;;;;;4.55;2.67;;;;;;;;;;5047246;28;20045;-64
2023/12/09 09:13:07;;;;;;;3.95;2.53;;;;;;;;;;5048169;28;20044;-64
2023/12/09 09:15:36;;;;;;;8.27;3.75;;;;;;;;;;5042678;28;20041;-64
2023/12/09 09:18:06;;;;;;;112.53;54.33;;;;;;;;;;5050081;28;20517;-66
2023/12/09 09:20:35;;;;;;;48.78;24.75;;;;;;;;;;5047365;28;20087;-65
2023/12/09 09:23:04;;;;;;;58.83;30.55;;;;;;;;;;5049782;28;20053;-67
2023/12/09 09:25:32;;;;;;;54.40;28.60;;;;;;;;;;5045376;28;20056;-65
2023/12/09 09:28:02;;;;;;;24.30;13.93;;;;;;;;;;5049222;28;20126;-64
2023/12/09 09:30:31;;;;;;;27.52;14.90;;;;;;;;;;5044004;28;20045;-64
2023/12/09 09:33:00;;;;;;;21.80;12.35;;;;;;;;;;5043585;28;20055;-65
2023/12/09 09:35:30;;;;;;;17.58;9.48;;;;;;;;;;5040986;28;20099;-66
2023/12/09 09:37:59;;;;;;;12.05;6.97;;;;;;;;;;5042310;28;20057;-63
2023/12/09 09:40:27;;;;;;;6.47;4.80;;;;;;;;;;5043280;28;20111;-66
2023/12/09 09:42:57;;;;;;;6.30;4.22;;;;;;;;;;5041059;28;20052;-65
2023/12/09 09:45:26;;;;;;;5.53;3.72;;;;;;;;;;5040403;28;20092;-65
2023/12/09 09:48:03;;;;;;;7.85;4.45;;;;;;;;;;5043827;28;20379;-65
2023/12/09 09:50:36;;;;;;;8.85;4.10;;;;;;;;;;5047460;28;20048;-65
2023/12/09 09:53:06;;;;;;;6.82;4.03;;;;;;;;;;5044604;28;20064;-64
2023/12/09 09:55:36;;;;;;;7.70;3.78;;;;;;;;;;5046808;28;20509;-64
2023/12/09 09:58:05;;;;;;;4.60;3.42;;;;;;;;;;5047537;28;20057;-65
2023/12/09 10:00:33;;;;;;;10.45;3.40;;;;;;;;;;5044080;28;20413;-63
2023/12/09 10:03:02;;;;;;;4.70;3.45;;;;;;;;;;5041324;28;20053;-64
2023/12/09 10:05:32;;;;;;;5.50;2.58;;;;;;;;;;5045934;28;20060;-65
2023/12/09 10:08:02;;;;;;;3.33;2.20;;;;;;;;;;5045723;28;20049;-63
2023/12/09 10:10:33;;;;;;;4.78;2.05;;;;;;;;;;5047839;28;20049;-66
2023/12/09 10:13:02;;;;;;;4.45;2.42;;;;;;;;;;5045001;28;20048;-65
2023/12/09 10:15:31;;;;;;;5.90;2.50;;;;;;;;;;5033521;28;20068;-64
2023/12/09 10:18:03;;;;;;;3.63;1.88;;;;;;;;;;5048022;28;20049;-65
2023/12/09 10:20:34;;;;;;;3.35;1.85;;;;;;;;;;5044903;28;20045;-64
2023/12/09 10:23:05;;;;;;;3.17;1.85;;;;;;;;;;5037102;28;20075;-65
2023/12/09 10:25:34;;;;;;;5.65;2.40;;;;;;;;;;5040512;28;20053;-65
2023/12/09 10:28:02;;;;;;;3.58;1.90;;;;;;;;;;5048324;28;20045;-65
2023/12/09 10:30:31;;;;;;;5.55;2.38;;;;;;;;;;5049316;28;20140;-64
2023/12/09 10:32:59;;;;;;;2.50;1.75;;;;;;;;;;5039312;28;20048;-65
2023/12/09 10:35:28;;;;;;;2.35;1.73;;;;;;;;;;5048647;28;20041;-64
2023/12/09 10:38:01;;;;;;;4.38;2.17;;;;;;;;;;5046138;28;20110;-65
2023/12/09 10:40:33;;;;;;;2.28;1.42;;;;;;;;;;5045897;28;20069;-64
2023/12/09 10:43:03;;;;;;;3.67;1.90;;;;;;;;;;5047357;28;20063;-66
2023/12/09 10:45:32;;;;;;;6.60;1.60;;;;;;;;;;5035468;28;20044;-66
2023/12/09 10:48:00;;;;;;;23.58;16.25;;;;;;;;;;5044364;28;20049;-66
2023/12/09 10:50:30;;;;;;;6.53;5.40;;;;;;;;;;5042015;28;20051;-66
2023/12/09 10:52:59;;;;;;;3.58;2.63;;;;;;;;;;5046351;28;20073;-65
2023/12/09 10:55:27;;;;;;;4.00;2.45;;;;;;;;;;5044435;28;20050;-66
2023/12/09 10:57:57;;;;;;;3.92;1.50;;;;;;;;;;5039968;28;20591;-67
2023/12/09 11:00:25;;;;;;;1.30;1.08;;;;;;;;;;5047777;28;20034;-65
2023/12/09 11:02:54;;;;;;;2.78;1.73;;;;;;;;;;5046106;28;20067;-67
2023/12/09 11:05:23;;;;;;;2.38;1.35;;;;;;;;;;5044365;28;20102;-65
2023/12/09 11:07:53;;;;;;;1.73;1.33;;;;;;;;;;5040569;28;20053;-65
2023/12/09 11:10:22;;;;;;;3.22;1.30;;;;;;;;;;5044702;28;20053;-67
2023/12/09 11:12:50;;;;;;;2.72;1.17;;;;;;;;;;5046394;28;20049;-67
2023/12/09 11:15:28;;;;;;;1.42;1.17;;;;;;;;;;5046290;28;20087;-67
2023/12/09 11:17:57;;;;;;;4.53;1.00;;;;;;;;;;5041794;28;20059;-68
2023/12/09 11:20:29;;;;;;;2.25;1.00;;;;;;;;;;5045292;28;20045;-67
2023/12/09 11:22:58;;;;;;;1.63;1.15;;;;;;;;;;5043120;28;20465;-67
2023/12/09 11:25:27;;;;;;;2.45;1.00;;;;;;;;;;5049955;28;20498;-66
2023/12/09 11:27:58;;;;;;;1.70;0.90;;;;;;;;;;5048735;28;20056;-67
2023/12/09 11:30:36;;;;;;;4.10;1.95;;;;;;;;;;5048239;28;20057;-66
2023/12/09 11:33:05;;;;;;;2.53;0.95;;;;;;;;;;5035489;28;20057;-66
2023/12/09 11:35:34;;;;;;;2.83;0.80;;;;;;;;;;5035004;28;20052;-68
2023/12/09 11:38:05;;;;;;;2.00;1.00;;;;;;;;;;5043771;28;20049;-66
2023/12/09 11:40:34;;;;;;;7.50;1.10;;;;;;;;;;5035213;28;20072;-67
2023/12/09 11:43:03;;;;;;;2.75;1.23;;;;;;;;;;5045506;28;20473;-67
2023/12/09 11:45:32;;;;;;;1.02;0.88;;;;;;;;;;5046232;28;20048;-66
2023/12/09 11:48:03;;;;;;;1.90;0.93;;;;;;;;;;5048199;28;20043;-67
2023/12/09 11:50:32;;;;;;;3.83;0.93;;;;;;;;;;5043762;28;20041;-67
2023/12/09 11:53:00;;;;;;;3.00;1.33;;;;;;;;;;5047854;28;20094;-66
2023/12/09 11:55:29;;;;;;;6.97;1.20;;;;;;;;;;5047071;28;20478;-69
2023/12/09 11:57:57;;;;;;;3.63;0.82;;;;;;;;;;5047361;28;20049;-66
2023/12/09 12:00:26;;;;;;;2.28;0.90;;;;;;;;;;5048088;28;20041;-66
2023/12/09 12:02:54;;;;;;;1.85;0.98;;;;;;;;;;5039925;28;20060;-68
2023/12/09 12:05:24;;;;;;;1.70;1.08;;;;;;;;;;5037438;28;20053;-66
2023/12/09 12:07:53;;;;;;;4.15;1.10;;;;;;;;;;5045328;28;20072;-67
2023/12/09 12:10:21;;;;;;;3.88;1.10;;;;;;;;;;5037573;28;20449;-66
2023/12/09 12:12:50;;;;;;;2.05;0.80;;;;;;;;;;5049908;28;20045;-67
2023/12/09 12:15:18;;;;;;;1.40;1.10;;;;;;;;;;5044212;28;20080;-68
2023/12/09 12:17:48;;;;;;;3.40;0.88;;;;;;;;;;5044829;28;20044;-68
2023/12/09 12:20:17;;;;;;;2.70;1.00;;;;;;;;;;5049545;28;20049;-68
2023/12/09 12:22:47;;;;;;;1.75;0.90;;;;;;;;;;5049418;28;20040;-68
2023/12/09 12:25:16;;;;;;;5.18;1.23;;;;;;;;;;5039060;28;20124;-69
2023/12/09 12:27:45;;;;;;;1.65;1.05;;;;;;;;;;5048431;28;20045;-66
2023/12/09 12:30:15;;;;;;;1.73;0.80;;;;;;;;;;5049426;28;20046;-67
2023/12/09 12:32:43;;;;;;;2.78;1.33;;;;;;;;;;5048663;28;20048;-67
2023/12/09 12:35:12;;;;;;;6.20;1.10;;;;;;;;;;5039969;28;20570;-66
2023/12/09 12:37:41;;;;;;;2.35;0.80;;;;;;;;;;5040670;28;20053;-66
2023/12/09 12:40:12;;;;;;;1.75;0.98;;;;;;;;;;5044161;28;20052;-65
2023/12/09 12:42:42;;;;;;;2.08;1.02;;;;;;;;;;5045534;28;20138;-65
2023/12/09 12:45:20;;;;;;;3.33;1.15;;;;;;;;;;5041005;28;20448;-65
2023/12/09 12:47:51;;;;;;;4.53;0.95;;;;;;;;;;5042206;28;20054;-67
2023/12/09 12:50:20;;;;;;;3.22;1.10;;;;;;;;;;5048951;28;20056;-66
2023/12/09 12:52:48;;;;;;;2.28;0.90;;;;;;;;;;5042150;28;20111;-67
2023/12/09 12:55:18;;;;;;;1.77;1.20;;;;;;;;;;5040330;28;20057;-66
2023/12/09 12:57:47;;;;;;;1.20;0.90;;;;;;;;;;5045440;28;20501;-68
2023/12/09 13:00:17;;;;;;;4.72;1.08;;;;;;;;;;5048729;28;20077;-67
2023/12/09 13:02:46;;;;;;;1.65;0.88;;;;;;;;;;5048383;28;20056;-66
2023/12/09 13:05:14;;;;;;;2.75;1.10;;;;;;;;;;5043003;28;20486;-65
2023/12/09 13:07:43;;;;;;;3.33;1.15;;;;;;;;;;5045616;28;20453;-66
2023/12/09 13:10:12;;;;;;;2.90;1.30;;;;;;;;;;5046380;28;20052;-67
2023/12/09 13:12:43;;;;;;;3.40;1.48;;;;;;;;;;5036953;28;20053;-67
2023/12/09 13:15:11;;;;;;;2.70;1.33;;;;;;;;;;5046593;28;20052;-67
2023/12/09 13:17:40;;;;;;;4.40;1.35;;;;;;;;;;5039112;28;20416;-65
2023/12/09 13:20:09;;;;;;;3.20;1.40;;;;;;;;;;5048353;28;20128;-67
2023/12/09 13:22:38;;;;;;;2.80;1.40;;;;;;;;;;5050332;28;20056;-69
2023/12/09 13:25:08;;;;;;;5.40;1.60;;;;;;;;;;5039042;28;20111;-65
2023/12/09 13:27:37;;;;;;;3.90;1.58;;;;;;;;;;5050637;28;20464;-67
2023/12/09 13:30:09;;;;;;;4.40;1.40;;;;;;;;;;5051220;28;20478;-67
2023/12/09 13:32:39;;;;;;;3.35;1.58;;;;;;;;;;5042698;28;20055;-67
2023/12/09 13:35:10;;;;;;;4.63;1.48;;;;;;;;;;5042048;28;20514;-67
2023/12/09 13:37:39;;;;;;;1.95;1.65;;;;;;;;;;5051715;28;20057;-68
2023/12/09 13:40:09;;;;;;;2.05;1.40;;;;;;;;;;5044111;28;20542;-67
2023/12/09 13:42:38;;;;;;;4.68;1.67;;;;;;;;;;5049910;28;20045;-65
2023/12/09 13:45:09;;;;;;;3.00;1.70;;;;;;;;;;5049792;28;20057;-68
2023/12/09 13:47:37;;;;;;;2.05;1.30;;;;;;;;;;5049865;28;20073;-67
2023/12/09 13:50:07;;;;;;;5.15;1.70;;;;;;;;;;5050870;28;20319;-69
2023/12/09 13:52:36;;;;;;;4.78;1.70;;;;;;;;;;5045682;28;20049;-67
2023/12/09 13:55:05;;;;;;;2.97;1.75;;;;;;;;;;5035664;28;20061;-67
2023/12/09 13:57:33;;;;;;;4.40;1.52;;;;;;;;;;5046396;28;20045;-67
2023/12/09 14:00:07;;;;;;;2.10;1.55;;;;;;;;;;5045055;28;20132;-68
2023/12/09 14:02:38;;;;;;;2.25;1.50;;;;;;;;;;5050234;28;20491;-68
2023/12/09 14:05:09;;;;;;;2.92;1.70;;;;;;;;;;5046256;28;20199;-66
2023/12/09 14:07:40;;;;;;;3.22;1.55;;;;;;;;;;5049304;28;20067;-67
2023/12/09 14:10:09;;;;;;;2.13;1.50;;;;;;;;;;5038918;28;20502;-68
2023/12/09 14:12:39;;;;;;;4.80;1.60;;;;;;;;;;5046958;28;20468;-68
2023/12/09 14:15:08;;;;;;;2.58;1.65;;;;;;;;;;5043483;28;20141;-67
2023/12/09 14:17:41;;;;;;;2.55;1.80;;;;;;;;;;5045106;28;20053;-65
2023/12/09 14:20:11;;;;;;;5.38;1.88;;;;;;;;;;5037194;28;20083;-66
2023/12/09 14:22:40;;;;;;;4.03;1.73;;;;;;;;;;5043624;28;20073;-66
2023/12/09 14:25:09;;;;;;;2.60;2.00;;;;;;;;;;5050685;28;20144;-66
2023/12/09 14:27:38;;;;;;;3.67;1.88;;;;;;;;;;5042803;28;20502;-67
2023/12/09 14:30:07;;;;;;;3.70;2.05;;;;;;;;;;5040350;28;20060;-66
2023/12/09 14:32:35;;;;;;;2.78;1.77;;;;;;;;;;5042541;28;20532;-67
2023/12/09 14:35:06;;;;;;;6.10;1.92;;;;;;;;;;5050858;28;20060;-66
2023/12/09 14:37:35;;;;;;;2.53;2.00;;;;;;;;;;5050133;28;20128;-67
2023/12/09 14:40:05;;;;;;;4.22;1.90;;;;;;;;;;5038724;28;20055;-66
2023/12/09 14:42:33;;;;;;;7.70;1.90;;;;;;;;;;5050644;28;20103;-66
2023/12/09 14:45:02;;;;;;;3.85;1.95;;;;;;;;;;5037712;28;20064;-66
2023/12/09 14:47:30;;;;;;;6.15;3.67;;;;;;;;;;5048796;28;20053;-66
2023/12/09 14:49:59;;;;;;;4.80;3.45;;;;;;;;;;5048024;28;20053;-67
2023/12/09 14:52:29;;;;;;;9.82;7.07;;;;;;;;;;5050415;28;20144;-68
2023/12/09 14:54:57;;;;;;;6.55;5.15;;;;;;;;;;5046189;28;20049;-66